createdAt,value
2022-08-17T00:00:43.901Z,1.95
2022-08-17T00:03:04.549Z,2.28
2022-08-17T00:05:32.534Z,2.13
2022-08-17T00:07:59.241Z,2.40
2022-08-17T00:10:25.894Z,2.30
2022-08-17T00:12:52.782Z,2.55
2022-08-17T00:15:21.109Z,2.15
2022-08-17T00:17:48.764Z,2.17
2022-08-17T00:20:15.507Z,2.50
2022-08-17T00:22:44.942Z,2.00
2022-08-17T00:25:16.658Z,2.20
2022-08-17T00:27:43.096Z,1.90
2022-08-17T00:30:10.676Z,1.92
2022-08-17T00:33:14.779Z,2.13
2022-08-17T00:35:27.644Z,2.03
2022-08-17T00:37:54.214Z,2.00
2022-08-17T00:40:20.663Z,2.10
2022-08-17T00:42:51.152Z,1.98
2022-08-17T00:45:18.355Z,2.10
2022-08-17T00:47:44.857Z,2.20
2022-08-17T00:50:13.151Z,2.00
2022-08-17T00:52:43.443Z,2.17
2022-08-17T00:55:10.901Z,1.90
2022-08-17T00:57:41.656Z,1.95
2022-08-17T01:00:12.047Z,1.80
2022-08-17T01:02:42.675Z,1.92
2022-08-17T01:05:18.933Z,1.90
2022-08-17T01:07:46.739Z,1.92
2022-08-17T01:10:59.967Z,2.10
2022-08-17T01:13:02.597Z,2.05
2022-08-17T01:15:30.543Z,2.00
2022-08-17T01:17:57.124Z,1.83
2022-08-17T01:20:23.589Z,1.80
2022-08-17T01:22:50.101Z,2.10
2022-08-17T01:25:17.124Z,2.30
2022-08-17T01:27:43.736Z,1.90
2022-08-17T01:30:58.856Z,2.00
2022-08-17T01:32:58.448Z,1.73
2022-08-17T01:35:24.983Z,2.05
2022-08-17T01:37:51.577Z,1.98
2022-08-17T01:40:37.769Z,1.88
2022-08-17T01:43:10.456Z,1.90
2022-08-17T01:45:45.169Z,1.85
2022-08-17T01:48:11.731Z,1.73
2022-08-17T01:50:39.901Z,1.70
2022-08-17T01:53:11.270Z,1.85
2022-08-17T01:55:43.209Z,1.80
2022-08-17T01:58:09.938Z,2.20
2022-08-17T02:00:59.680Z,1.95
2022-08-17T02:03:25.174Z,2.03
2022-08-17T02:05:53.283Z,2.05
2022-08-17T02:08:20.738Z,2.05
2022-08-17T02:11:05.192Z,2.13
2022-08-17T02:13:38.109Z,1.90
2022-08-17T02:16:04.640Z,2.10
2022-08-17T02:18:31.128Z,2.17
2022-08-17T02:20:57.750Z,2.20
2022-08-17T02:23:25.263Z,2.00
2022-08-17T02:25:52.071Z,1.95
2022-08-17T02:28:18.976Z,2.45
2022-08-17T02:31:01.410Z,2.10
2022-08-17T02:33:42.972Z,2.53
2022-08-17T02:36:11.021Z,2.40
2022-08-17T02:38:38.170Z,1.90
2022-08-17T02:41:05.109Z,2.30
2022-08-17T02:43:32.168Z,2.00
2022-08-17T02:45:58.646Z,1.90
2022-08-17T02:48:30.636Z,2.00
2022-08-17T02:50:58.894Z,2.38
2022-08-17T02:53:25.759Z,2.15
2022-08-17T02:55:52.586Z,1.80
2022-08-17T02:58:34.326Z,2.25
2022-08-17T03:01:03.422Z,2.42
2022-08-17T03:03:30.016Z,2.10
2022-08-17T03:05:56.465Z,2.53
2022-08-17T03:08:23.519Z,2.40
2022-08-17T03:10:50.543Z,2.17
2022-08-17T03:13:17.452Z,2.20
2022-08-17T03:15:45.298Z,2.33
2022-08-17T03:18:21.967Z,2.20
2022-08-17T03:20:56.385Z,2.30
2022-08-17T03:23:23.949Z,2.28
2022-08-17T03:25:52.958Z,2.20
2022-08-17T03:28:20.449Z,2.40
2022-08-17T03:30:47.157Z,2.40
2022-08-17T03:33:13.795Z,1.98
2022-08-17T03:35:40.722Z,2.10
2022-08-17T03:38:08.132Z,1.98
2022-08-17T03:40:57.256Z,2.50
2022-08-17T03:43:21.852Z,2.08
2022-08-17T03:46:11.019Z,2.00
2022-08-17T03:49:12.074Z,2.10
2022-08-17T03:51:57.161Z,2.15
2022-08-17T03:54:42.401Z,1.90
2022-08-17T03:57:10.012Z,2.47
2022-08-17T03:59:37.103Z,2.10
2022-08-17T04:02:09.546Z,2.30
2022-08-17T04:04:36.775Z,1.98
2022-08-17T04:07:03.580Z,1.98
2022-08-17T04:09:30.190Z,2.10
2022-08-17T04:11:57.330Z,2.35
2022-08-17T04:14:31.195Z,2.08
2022-08-17T04:16:57.702Z,2.05
2022-08-17T04:19:24.203Z,2.28
2022-08-17T04:21:50.684Z,2.63
2022-08-17T04:24:17.123Z,2.10
2022-08-17T04:26:53.156Z,2.33
2022-08-17T04:29:21.397Z,2.42
2022-08-17T04:31:48.162Z,2.15
2022-08-17T04:34:14.714Z,2.70
2022-08-17T04:36:50.225Z,2.47
2022-08-17T04:39:17.145Z,1.92
2022-08-17T04:42:02.312Z,2.15
2022-08-17T04:44:37.648Z,2.30
2022-08-17T04:47:04.687Z,2.22
2022-08-17T04:49:32.570Z,2.20
2022-08-17T04:52:04.130Z,2.28
2022-08-17T04:54:31.224Z,2.20
2022-08-17T04:56:57.739Z,2.05
2022-08-17T04:59:24.291Z,2.40
2022-08-17T05:01:51.821Z,2.08
2022-08-17T05:04:32.956Z,2.03
2022-08-17T05:07:01.287Z,2.40
2022-08-17T05:09:28.246Z,2.15
2022-08-17T05:11:56.135Z,2.22
2022-08-17T05:14:33.530Z,2.45
2022-08-17T05:17:00.978Z,2.33
2022-08-17T05:19:27.792Z,2.45
2022-08-17T05:21:54.352Z,2.00
2022-08-17T05:24:38.497Z,2.20
2022-08-17T05:27:07.541Z,2.25
2022-08-17T05:29:35.567Z,2.50
2022-08-17T05:32:39.173Z,2.58
2022-08-17T05:35:01.512Z,2.45
2022-08-17T05:37:28.132Z,2.40
2022-08-17T05:39:54.779Z,2.60
2022-08-17T05:42:21.383Z,2.60
2022-08-17T05:44:47.932Z,3.10
2022-08-17T05:47:14.432Z,2.90
2022-08-17T05:49:41.033Z,2.70
2022-08-17T05:52:07.552Z,2.63
2022-08-17T05:54:36.997Z,2.90
2022-08-17T05:57:24.782Z,3.00
2022-08-17T05:59:58.952Z,2.72
2022-08-17T06:02:47.081Z,2.63
2022-08-17T06:05:14.253Z,2.75
2022-08-17T06:07:53.934Z,2.60
2022-08-17T06:10:37.903Z,2.33
2022-08-17T06:13:16.683Z,2.33
2022-08-17T06:16:04.163Z,2.22
2022-08-17T06:18:46.242Z,2.80
2022-08-17T06:21:14.932Z,2.30
2022-08-17T06:23:50.774Z,2.30
2022-08-17T06:26:31.248Z,2.78
2022-08-17T06:29:18.753Z,2.55
2022-08-17T06:31:45.550Z,2.42
2022-08-17T06:34:12.562Z,2.38
2022-08-17T06:36:48.510Z,2.45
2022-08-17T06:39:20.889Z,2.63
2022-08-17T06:41:56.708Z,2.35
2022-08-17T06:44:43.312Z,2.90
2022-08-17T06:47:28.850Z,2.25
2022-08-17T06:49:55.728Z,2.40
2022-08-17T06:52:45.305Z,2.63
2022-08-17T06:55:20.271Z,2.28
2022-08-17T06:57:50.162Z,2.42
2022-08-17T07:00:19.349Z,2.30
2022-08-17T07:03:24.409Z,2.20
2022-08-17T07:05:53.495Z,2.60
2022-08-17T07:08:35.010Z,2.53
2022-08-17T07:11:03.669Z,2.45
2022-08-17T07:13:51.443Z,2.60
2022-08-17T07:16:21.460Z,2.40
2022-08-17T07:18:50.619Z,2.60
2022-08-17T07:21:40.970Z,2.25
2022-08-17T07:24:45.169Z,2.00
2022-08-17T07:27:14.271Z,2.25
2022-08-17T07:29:44.093Z,2.28
2022-08-17T07:32:11.484Z,2.67
2022-08-17T07:35:15.371Z,2.63
2022-08-17T07:37:51.066Z,2.25
2022-08-17T07:40:18.014Z,2.30
2022-08-17T07:43:03.265Z,2.10
2022-08-17T07:45:50.244Z,2.25
2022-08-17T07:48:19.608Z,2.50
2022-08-17T07:50:49.310Z,2.17
2022-08-17T07:53:18.279Z,2.50
2022-08-17T07:55:45.488Z,2.15
2022-08-17T07:58:19.928Z,2.28
2022-08-17T08:00:46.641Z,3.60
2022-08-17T08:03:26.158Z,2.70
2022-08-17T08:05:55.401Z,3.00
2022-08-17T08:08:30.271Z,3.08
2022-08-17T08:10:58.472Z,2.55
2022-08-17T08:13:25.922Z,2.85
2022-08-17T08:15:54.718Z,2.65
2022-08-17T08:18:53.313Z,3.40
2022-08-17T08:21:19.663Z,2.50
2022-08-17T08:23:59.682Z,2.78
2022-08-17T08:26:45.212Z,2.50
2022-08-17T08:29:11.794Z,2.95
2022-08-17T08:31:57.682Z,3.03
2022-08-17T08:35:01.809Z,4.95
2022-08-17T08:37:42.661Z,3.97
2022-08-17T08:40:24.881Z,2.70
2022-08-17T08:43:00.731Z,3.17
2022-08-17T08:45:57.125Z,3.35
2022-08-17T08:48:52.964Z,3.45
2022-08-17T08:51:22.141Z,3.63
2022-08-17T08:53:57.813Z,3.17
2022-08-17T08:56:27.161Z,3.20
2022-08-17T08:59:01.361Z,3.08
2022-08-17T09:01:31.808Z,3.47
2022-08-17T09:04:25.188Z,3.08
2022-08-17T09:07:07.164Z,6.38
2022-08-17T09:09:33.711Z,3.85
2022-08-17T09:12:03.648Z,3.67
2022-08-17T09:14:43.222Z,3.65
2022-08-17T09:17:19.358Z,3.70
2022-08-17T09:19:58.733Z,2.47
2022-08-17T09:22:52.776Z,2.97
2022-08-17T09:25:28.452Z,2.90
2022-08-17T09:28:21.153Z,2.72
2022-08-17T09:30:49.881Z,2.72
2022-08-17T09:33:19.772Z,3.30
2022-08-17T09:35:51.229Z,2.92
2022-08-17T09:38:32.658Z,2.80
2022-08-17T09:41:05.221Z,2.50
2022-08-17T09:43:36.890Z,2.88
2022-08-17T09:46:23.691Z,3.33
2022-08-17T09:48:55.412Z,2.63
2022-08-17T09:51:21.912Z,3.03
2022-08-17T09:53:49.831Z,2.70
2022-08-17T09:56:39.134Z,2.88
2022-08-17T09:59:20.218Z,3.03
2022-08-17T10:02:13.599Z,2.50
2022-08-17T10:04:49.996Z,3.08
2022-08-17T10:07:16.516Z,3.03
2022-08-17T10:09:56.906Z,3.25
2022-08-17T10:12:28.275Z,3.10
2022-08-17T10:14:59.907Z,3.30
2022-08-17T10:17:41.488Z,2.90
2022-08-17T10:20:20.677Z,2.70
2022-08-17T10:23:05.532Z,3.20
2022-08-17T10:25:55.692Z,3.30
2022-08-17T10:28:28.736Z,3.35
2022-08-17T10:31:16.696Z,3.28
2022-08-17T10:34:04.959Z,3.40
2022-08-17T10:36:34.632Z,3.22
2022-08-17T10:39:11.048Z,3.00
2022-08-17T10:41:40.504Z,3.47
2022-08-17T10:44:38.182Z,3.08
2022-08-17T10:46:56.858Z,3.10
2022-08-17T10:49:25.827Z,3.00
2022-08-17T10:51:54.550Z,3.33
2022-08-17T10:54:36.188Z,3.20
2022-08-17T10:57:02.790Z,3.13
2022-08-17T10:59:50.837Z,3.10
2022-08-17T11:02:32.136Z,3.17
2022-08-17T11:05:07.762Z,2.92
2022-08-17T11:07:52.387Z,3.38
2022-08-17T11:10:38.887Z,2.80
2022-08-17T11:13:14.307Z,3.10
2022-08-17T11:15:41.454Z,2.97
2022-08-17T11:18:34.138Z,2.80
2022-08-17T11:21:26.785Z,3.03
2022-08-17T11:23:59.325Z,2.92
2022-08-17T11:26:30.676Z,3.10
2022-08-17T11:29:00.110Z,2.78
2022-08-17T11:31:38.443Z,3.10
2022-08-17T11:34:18.862Z,2.65
2022-08-17T11:36:52.982Z,2.78
2022-08-17T11:39:19.512Z,2.97
2022-08-17T11:41:53.173Z,2.63
2022-08-17T11:44:37.808Z,3.22
2022-08-17T11:47:41.882Z,2.60
2022-08-17T11:50:39.161Z,2.60
2022-08-17T11:53:06.307Z,3.22
2022-08-17T11:55:40.567Z,3.28
2022-08-17T11:58:28.590Z,2.83
2022-08-17T12:00:59.389Z,2.40
2022-08-17T12:03:32.042Z,2.42
2022-08-17T12:06:21.072Z,2.53
2022-08-17T12:08:53.738Z,2.75
2022-08-17T12:11:57.832Z,2.28
2022-08-17T12:15:05.814Z,2.50
2022-08-17T12:17:39.382Z,2.38
2022-08-17T12:20:14.453Z,2.78
2022-08-17T12:22:44.001Z,2.60
2022-08-17T12:25:13.423Z,2.38
2022-08-17T12:27:50.744Z,2.47
2022-08-17T12:30:31.554Z,2.50
2022-08-17T12:32:58.268Z,2.85
2022-08-17T12:35:25.028Z,2.92
2022-08-17T12:37:51.965Z,2.47
2022-08-17T12:40:22.816Z,2.50
2022-08-17T12:42:57.659Z,2.63
2022-08-17T12:45:30.852Z,2.67
2022-08-17T12:48:07.848Z,2.70
2022-08-17T12:50:39.165Z,2.42
2022-08-17T12:53:16.656Z,2.75
2022-08-17T12:55:44.457Z,2.78
2022-08-17T12:58:14.399Z,2.60
2022-08-17T13:00:47.615Z,2.30
2022-08-17T13:03:21.808Z,2.70
2022-08-17T13:06:01.785Z,2.70
2022-08-17T13:08:30.676Z,2.75
2022-08-17T13:10:59.273Z,2.90
2022-08-17T13:13:27.676Z,2.35
2022-08-17T13:15:57.418Z,2.70
2022-08-17T13:18:38.999Z,2.45
2022-08-17T13:21:30.483Z,2.40
2022-08-17T13:23:57.167Z,2.78
2022-08-17T13:26:43.574Z,2.53
2022-08-17T13:29:16.306Z,2.95
2022-08-17T13:31:52.214Z,2.45
2022-08-17T13:34:19.139Z,2.30
2022-08-17T13:36:46.307Z,2.70
2022-08-17T13:39:17.067Z,2.60
2022-08-17T13:41:43.798Z,2.28
2022-08-17T13:44:29.101Z,2.53
2022-08-17T13:46:57.304Z,2.70
2022-08-17T13:49:24.027Z,2.80
2022-08-17T13:52:08.591Z,2.67
2022-08-17T13:54:36.793Z,2.80
2022-08-17T13:57:03.341Z,2.55
2022-08-17T13:59:52.933Z,2.30
2022-08-17T14:02:22.074Z,2.70
2022-08-17T14:04:49.088Z,2.20
2022-08-17T14:07:16.247Z,2.60
2022-08-17T14:09:57.774Z,2.80
2022-08-17T14:12:27.724Z,2.70
2022-08-17T14:14:56.042Z,2.80
2022-08-17T14:17:23.334Z,2.70
2022-08-17T14:19:50.967Z,2.80
2022-08-17T14:22:31.060Z,3.00
2022-08-17T14:24:59.072Z,2.85
2022-08-17T14:27:28.162Z,2.42
2022-08-17T14:29:56.160Z,2.50
2022-08-17T14:32:24.849Z,2.72
2022-08-17T14:34:52.471Z,2.58
2022-08-17T14:37:20.841Z,2.42
2022-08-17T14:39:47.584Z,2.70
2022-08-17T14:42:15.550Z,2.42
2022-08-17T14:44:42.103Z,2.60
2022-08-17T14:47:14.907Z,1.65
2022-08-17T14:49:42.252Z,2.45
2022-08-17T14:52:09.393Z,2.55
2022-08-17T14:54:35.933Z,2.30
2022-08-17T14:57:14.826Z,2.80
2022-08-17T14:59:52.340Z,2.50
2022-08-17T15:02:29.522Z,3.10
2022-08-17T15:05:04.647Z,2.58
2022-08-17T15:07:31.669Z,2.80
2022-08-17T15:10:00.732Z,3.05
2022-08-17T15:12:32.388Z,2.60
2022-08-17T15:15:00.929Z,2.70
2022-08-17T15:17:45.168Z,2.58
2022-08-17T15:20:16.597Z,2.38
2022-08-17T15:22:43.808Z,2.63
2022-08-17T15:25:11.147Z,2.42
2022-08-17T15:27:37.760Z,2.28
2022-08-17T15:30:05.270Z,2.50
2022-08-17T15:32:35.301Z,2.60
2022-08-17T15:35:03.100Z,2.70
2022-08-17T15:37:31.813Z,2.40
2022-08-17T15:40:00.737Z,9.27
2022-08-17T15:42:27.619Z,3.72
2022-08-17T15:44:56.719Z,2.90
2022-08-17T15:47:23.645Z,3.50
2022-08-17T15:49:50.968Z,3.47
2022-08-17T15:52:17.496Z,3.17
2022-08-17T15:54:48.754Z,2.75
2022-08-17T15:57:15.328Z,3.00
2022-08-17T15:59:41.812Z,2.70
2022-08-17T16:03:44.680Z,2.60
2022-08-17T16:05:03.927Z,2.78
2022-08-17T16:07:31.714Z,2.67
2022-08-17T16:09:58.241Z,2.65
2022-08-17T16:12:24.780Z,2.88
2022-08-17T16:14:53.397Z,2.65
2022-08-17T16:17:38.784Z,2.47
2022-08-17T16:20:06.840Z,2.60
2022-08-17T16:22:44.349Z,2.70
2022-08-17T16:25:12.548Z,2.40
2022-08-17T16:27:39.384Z,2.55
2022-08-17T16:30:06.318Z,2.80
2022-08-17T16:32:33.101Z,3.30
2022-08-17T16:35:04.589Z,2.60
2022-08-17T16:37:31.087Z,2.78
2022-08-17T16:40:02.227Z,2.90
2022-08-17T16:42:30.958Z,2.90
2022-08-17T16:45:04.457Z,2.80
2022-08-17T16:47:31.126Z,3.25
2022-08-17T16:49:57.660Z,2.90
2022-08-17T16:52:32.150Z,2.65
2022-08-17T16:55:01.104Z,2.47
2022-08-17T16:57:27.815Z,6.68
2022-08-17T16:59:54.334Z,26.45
2022-08-17T17:02:47.515Z,10.30
2022-08-17T17:05:26.069Z,7.75
2022-08-17T17:07:53.432Z,6.35
2022-08-17T17:10:22.375Z,5.22
2022-08-17T17:13:01.350Z,3.95
2022-08-17T17:15:39.697Z,4.43
2022-08-17T17:18:09.187Z,4.60
2022-08-17T17:20:42.781Z,6.05
2022-08-17T17:23:12.180Z,9.32
2022-08-17T17:26:14.848Z,7.22
2022-08-17T17:28:53.328Z,6.90
2022-08-17T17:31:23.877Z,6.00
2022-08-17T17:33:53.458Z,5.90
2022-08-17T17:36:19.997Z,5.75
2022-08-17T17:38:52.929Z,5.53
2022-08-17T17:41:29.041Z,5.93
2022-08-17T17:44:03.231Z,4.95
2022-08-17T17:46:33.334Z,5.03
2022-08-17T17:49:00.206Z,4.88
2022-08-17T17:52:06.720Z,4.60
2022-08-17T17:54:43.485Z,5.10
2022-08-17T17:57:17.742Z,4.32
2022-08-17T17:59:47.542Z,5.30
2022-08-17T18:02:45.052Z,5.05
2022-08-17T18:05:20.214Z,3.03
2022-08-17T18:08:10.960Z,4.40
2022-08-17T18:10:49.892Z,4.38
2022-08-17T18:13:33.419Z,5.30
2022-08-17T18:16:01.091Z,3.80
2022-08-17T18:18:37.529Z,3.58
2022-08-17T18:21:07.197Z,3.88
2022-08-17T18:23:33.945Z,3.80
2022-08-17T18:26:01.981Z,4.00
2022-08-17T18:28:30.913Z,4.25
2022-08-17T18:31:09.601Z,3.80
2022-08-17T18:33:37.101Z,3.83
2022-08-17T18:36:03.989Z,3.92
2022-08-17T18:38:35.243Z,3.88
2022-08-17T18:41:01.779Z,3.55
2022-08-17T18:43:52.966Z,4.13
2022-08-17T18:46:28.374Z,3.95
2022-08-17T18:49:04.058Z,4.03
2022-08-17T18:51:41.780Z,3.90
2022-08-17T18:54:14.867Z,3.60
2022-08-17T18:56:42.621Z,4.20
2022-08-17T18:59:24.241Z,4.10
2022-08-17T19:01:59.220Z,3.70
2022-08-17T19:04:34.586Z,4.07
2022-08-17T19:07:10.523Z,3.75
2022-08-17T19:09:40.536Z,3.72
2022-08-17T19:12:09.013Z,4.00
2022-08-17T19:14:35.945Z,4.00
2022-08-17T19:17:09.899Z,3.63
2022-08-17T19:19:51.584Z,3.65
2022-08-17T19:22:28.865Z,3.58
2022-08-17T19:25:02.732Z,3.45
2022-08-17T19:27:46.421Z,3.60
2022-08-17T19:30:16.558Z,3.50
2022-08-17T19:32:43.524Z,3.80
2022-08-17T19:35:16.626Z,3.58
2022-08-17T19:37:56.545Z,3.42
2022-08-17T19:40:49.013Z,3.53
2022-08-17T19:43:21.543Z,3.28
2022-08-17T19:45:59.413Z,3.20
2022-08-17T19:48:39.561Z,3.00
2022-08-17T19:51:13.326Z,3.47
2022-08-17T19:54:04.931Z,3.38
2022-08-17T19:56:47.567Z,3.72
2022-08-17T19:59:46.387Z,3.40
2022-08-17T20:02:23.906Z,3.40
2022-08-17T20:04:51.075Z,4.05
2022-08-17T20:07:24.130Z,3.22
2022-08-17T20:09:58.395Z,3.90
2022-08-17T20:12:29.094Z,3.67
2022-08-17T20:14:58.565Z,4.07
2022-08-17T20:17:28.371Z,3.40
2022-08-17T20:20:03.772Z,3.47
2022-08-17T20:22:51.765Z,3.63
2022-08-17T20:25:30.034Z,3.50
2022-08-17T20:28:05.887Z,3.45
2022-08-17T20:30:37.981Z,3.50
2022-08-17T20:33:06.201Z,3.65
2022-08-17T20:35:36.700Z,3.85
2022-08-17T20:38:06.339Z,3.97
2022-08-17T20:40:49.706Z,3.72
2022-08-17T20:43:34.596Z,3.80
2022-08-17T20:46:04.230Z,3.65
2022-08-17T20:48:38.756Z,4.20
2022-08-17T20:51:22.616Z,4.30
2022-08-17T20:53:49.204Z,4.95
2022-08-17T20:56:34.217Z,4.63
2022-08-17T20:59:00.966Z,3.75
2022-08-17T21:01:40.430Z,4.10
2022-08-17T21:04:08.441Z,3.88
2022-08-17T21:06:54.976Z,3.80
2022-08-17T21:09:28.045Z,3.95
2022-08-17T21:12:04.343Z,4.68
2022-08-17T21:14:56.717Z,4.20
2022-08-17T21:17:37.507Z,4.20
2022-08-17T21:20:24.263Z,3.53
2022-08-17T21:23:10.805Z,3.92
2022-08-17T21:25:42.094Z,3.88
2022-08-17T21:28:30.005Z,3.75
2022-08-17T21:31:08.989Z,3.40
2022-08-17T21:33:37.568Z,3.90
2022-08-17T21:36:10.144Z,4.10
2022-08-17T21:38:38.282Z,3.90
2022-08-17T21:41:05.095Z,3.60
2022-08-17T21:43:37.665Z,4.00
2022-08-17T21:46:10.463Z,3.85
2022-08-17T21:48:42.193Z,3.58
2022-08-17T21:51:23.518Z,3.53
2022-08-17T21:53:51.242Z,3.60
2022-08-17T21:56:29.848Z,3.80
2022-08-17T21:59:01.799Z,3.67
2022-08-17T22:01:30.038Z,3.70
2022-08-17T22:03:58.815Z,4.38
2022-08-17T22:06:30.536Z,3.95
2022-08-17T22:09:23.223Z,3.05
2022-08-17T22:12:09.149Z,4.18
2022-08-17T22:14:52.533Z,3.90
2022-08-17T22:17:21.021Z,3.88
2022-08-17T22:19:52.267Z,4.07
2022-08-17T22:22:30.655Z,3.92
2022-08-17T22:25:04.163Z,4.65
2022-08-17T22:27:45.867Z,4.30
2022-08-17T22:30:21.558Z,3.75
2022-08-17T22:32:49.378Z,3.80
2022-08-17T22:35:18.553Z,3.53
2022-08-17T22:37:45.378Z,3.58
2022-08-17T22:40:23.411Z,3.97
2022-08-17T22:42:49.977Z,3.90
2022-08-17T22:45:16.535Z,3.75
2022-08-17T22:47:48.768Z,3.70
2022-08-17T22:50:22.694Z,3.90
2022-08-17T22:53:15.989Z,3.85
2022-08-17T22:56:08.877Z,3.58
2022-08-17T22:59:00.040Z,3.80
2022-08-17T23:01:28.424Z,3.35
2022-08-17T23:04:04.165Z,3.38
2022-08-17T23:06:33.886Z,3.45
2022-08-17T23:09:03.285Z,3.40
2022-08-17T23:11:48.897Z,3.42
2022-08-17T23:17:00.667Z,3.40
2022-08-17T23:19:28.014Z,3.85
2022-08-17T23:24:24.401Z,3.50
2022-08-17T23:26:53.615Z,3.17
2022-08-17T23:29:20.081Z,3.20
2022-08-17T23:31:55.015Z,3.65
2022-08-17T23:34:21.555Z,3.58
2022-08-17T23:36:48.402Z,6.53
2022-08-17T23:39:24.488Z,4.95
2022-08-17T23:41:58.779Z,4.30
2022-08-17T23:44:27.614Z,4.25
2022-08-17T23:46:54.901Z,4.30
2022-08-17T23:49:27.631Z,5.10
2022-08-17T23:51:59.535Z,4.53
2022-08-17T23:54:35.318Z,4.50
2022-08-17T23:57:02.689Z,4.10
2022-08-17T23:59:38.376Z,3.90
